sensor_id;sensor_type;location;lat;lon;timestamp;P1;durP1;ratioP1;P2;durP2;ratioP2
6372;SDS011;3219;51.362;7.074;2023-08-20T00:01:19;11.00;;;7.45;;
6372;SDS011;3219;51.362;7.074;2023-08-20T00:03:53;11.35;;;7.22;;
6372;SDS011;3219;51.362;7.074;2023-08-20T00:06:24;11.55;;;7.15;;
6372;SDS011;3219;51.362;7.074;2023-08-20T00:08:55;11.45;;;8.27;;
6372;SDS011;3219;51.362;7.074;2023-08-20T00:11:25;10.52;;;7.72;;
6372;SDS011;3219;51.362;7.074;2023-08-20T00:13:54;9.15;;;6.80;;
6372;SDS011;3219;51.362;7.074;2023-08-20T00:16:23;9.10;;;7.55;;
6372;SDS011;3219;51.362;7.074;2023-08-20T00:18:53;8.63;;;6.32;;
6372;SDS011;3219;51.362;7.074;2023-08-20T00:21:23;8.00;;;6.47;;
6372;SDS011;3219;51.362;7.074;2023-08-20T00:23:54;8.32;;;5.60;;
6372;SDS011;3219;51.362;7.074;2023-08-20T00:26:25;7.75;;;6.30;;
6372;SDS011;3219;51.362;7.074;2023-08-20T00:28:54;9.95;;;6.63;;
6372;SDS011;3219;51.362;7.074;2023-08-20T00:31:23;11.23;;;6.97;;
6372;SDS011;3219;51.362;7.074;2023-08-20T00:33:52;12.20;;;7.90;;
6372;SDS011;3219;51.362;7.074;2023-08-20T00:36:22;14.25;;;9.30;;
6372;SDS011;3219;51.362;7.074;2023-08-20T00:41:18;14.35;;;8.98;;
6372;SDS011;3219;51.362;7.074;2023-08-20T00:43:47;11.15;;;8.15;;
6372;SDS011;3219;51.362;7.074;2023-08-20T00:46:17;12.90;;;8.10;;
6372;SDS011;3219;51.362;7.074;2023-08-20T00:48:49;10.52;;;7.00;;
6372;SDS011;3219;51.362;7.074;2023-08-20T00:51:18;11.50;;;7.63;;
6372;SDS011;3219;51.362;7.074;2023-08-20T00:53:47;11.00;;;7.30;;
6372;SDS011;3219;51.362;7.074;2023-08-20T00:58:45;11.82;;;7.47;;
6372;SDS011;3219;51.362;7.074;2023-08-20T01:01:15;8.57;;;5.22;;
6372;SDS011;3219;51.362;7.074;2023-08-20T01:03:45;9.50;;;6.53;;
6372;SDS011;3219;51.362;7.074;2023-08-20T01:06:19;8.18;;;4.80;;
6372;SDS011;3219;51.362;7.074;2023-08-20T01:08:53;7.07;;;4.68;;
6372;SDS011;3219;51.362;7.074;2023-08-20T01:11:26;6.97;;;4.43;;
6372;SDS011;3219;51.362;7.074;2023-08-20T01:13:59;5.80;;;4.40;;
6372;SDS011;3219;51.362;7.074;2023-08-20T01:16:28;7.00;;;4.95;;
6372;SDS011;3219;51.362;7.074;2023-08-20T01:18:57;6.82;;;4.40;;
6372;SDS011;3219;51.362;7.074;2023-08-20T01:21:29;9.00;;;5.38;;
6372;SDS011;3219;51.362;7.074;2023-08-20T01:24:06;8.30;;;5.72;;
6372;SDS011;3219;51.362;7.074;2023-08-20T01:26:42;8.63;;;6.28;;
6372;SDS011;3219;51.362;7.074;2023-08-20T01:29:17;9.77;;;6.50;;
6372;SDS011;3219;51.362;7.074;2023-08-20T01:31:46;10.77;;;7.10;;
6372;SDS011;3219;51.362;7.074;2023-08-20T01:34:16;11.07;;;7.78;;
6372;SDS011;3219;51.362;7.074;2023-08-20T01:36:47;11.88;;;8.68;;
6372;SDS011;3219;51.362;7.074;2023-08-20T01:39:17;14.63;;;8.43;;
6372;SDS011;3219;51.362;7.074;2023-08-20T01:41:46;18.38;;;10.93;;
6372;SDS011;3219;51.362;7.074;2023-08-20T01:44:17;19.48;;;12.45;;
6372;SDS011;3219;51.362;7.074;2023-08-20T01:46:47;18.10;;;11.68;;
6372;SDS011;3219;51.362;7.074;2023-08-20T01:49:17;16.52;;;10.93;;
6372;SDS011;3219;51.362;7.074;2023-08-20T01:51:47;15.40;;;10.80;;
6372;SDS011;3219;51.362;7.074;2023-08-20T01:54:16;16.00;;;10.38;;
6372;SDS011;3219;51.362;7.074;2023-08-20T01:56:46;13.85;;;9.30;;
6372;SDS011;3219;51.362;7.074;2023-08-20T01:59:15;15.43;;;10.43;;
6372;SDS011;3219;51.362;7.074;2023-08-20T02:01:47;15.18;;;10.30;;
6372;SDS011;3219;51.362;7.074;2023-08-20T02:04:16;15.73;;;10.57;;
6372;SDS011;3219;51.362;7.074;2023-08-20T02:06:43;18.83;;;11.52;;
6372;SDS011;3219;51.362;7.074;2023-08-20T02:11:40;18.70;;;11.75;;
6372;SDS011;3219;51.362;7.074;2023-08-20T02:14:10;16.25;;;10.73;;
6372;SDS011;3219;51.362;7.074;2023-08-20T02:16:40;15.93;;;11.05;;
6372;SDS011;3219;51.362;7.074;2023-08-20T02:19:10;17.73;;;10.95;;
6372;SDS011;3219;51.362;7.074;2023-08-20T02:21:39;14.88;;;10.02;;
6372;SDS011;3219;51.362;7.074;2023-08-20T02:24:09;15.23;;;9.88;;
6372;SDS011;3219;51.362;7.074;2023-08-20T02:26:39;16.38;;;10.60;;
6372;SDS011;3219;51.362;7.074;2023-08-20T02:29:08;16.45;;;10.25;;
6372;SDS011;3219;51.362;7.074;2023-08-20T02:31:38;16.92;;;10.90;;
6372;SDS011;3219;51.362;7.074;2023-08-20T02:34:07;19.98;;;11.63;;
6372;SDS011;3219;51.362;7.074;2023-08-20T02:36:38;17.27;;;11.60;;
6372;SDS011;3219;51.362;7.074;2023-08-20T02:39:07;18.30;;;10.30;;
6372;SDS011;3219;51.362;7.074;2023-08-20T02:41:36;16.48;;;9.88;;
6372;SDS011;3219;51.362;7.074;2023-08-20T02:44:06;13.60;;;9.10;;
6372;SDS011;3219;51.362;7.074;2023-08-20T02:46:35;15.25;;;10.63;;
6372;SDS011;3219;51.362;7.074;2023-08-20T02:49:05;18.17;;;10.57;;
6372;SDS011;3219;51.362;7.074;2023-08-20T02:51:34;15.73;;;9.48;;
6372;SDS011;3219;51.362;7.074;2023-08-20T02:54:05;13.95;;;9.15;;
6372;SDS011;3219;51.362;7.074;2023-08-20T02:56:35;15.73;;;9.75;;
6372;SDS011;3219;51.362;7.074;2023-08-20T02:59:04;15.77;;;10.93;;
6372;SDS011;3219;51.362;7.074;2023-08-20T03:01:32;14.18;;;9.02;;
6372;SDS011;3219;51.362;7.074;2023-08-20T03:04:01;15.65;;;9.25;;
6372;SDS011;3219;51.362;7.074;2023-08-20T03:06:30;16.83;;;11.25;;
6372;SDS011;3219;51.362;7.074;2023-08-20T03:08:58;15.23;;;10.45;;
6372;SDS011;3219;51.362;7.074;2023-08-20T03:11:30;18.48;;;11.45;;
6372;SDS011;3219;51.362;7.074;2023-08-20T03:13:58;13.50;;;9.60;;
6372;SDS011;3219;51.362;7.074;2023-08-20T03:16:28;16.48;;;11.25;;
6372;SDS011;3219;51.362;7.074;2023-08-20T03:18:56;15.20;;;10.02;;
6372;SDS011;3219;51.362;7.074;2023-08-20T03:21:25;16.15;;;11.20;;
6372;SDS011;3219;51.362;7.074;2023-08-20T03:23:55;16.70;;;11.27;;
6372;SDS011;3219;51.362;7.074;2023-08-20T03:26:23;16.70;;;11.20;;
6372;SDS011;3219;51.362;7.074;2023-08-20T03:28:53;16.40;;;10.88;;
6372;SDS011;3219;51.362;7.074;2023-08-20T03:31:23;15.93;;;10.57;;
6372;SDS011;3219;51.362;7.074;2023-08-20T03:33:51;17.48;;;11.25;;
6372;SDS011;3219;51.362;7.074;2023-08-20T03:36:20;17.55;;;11.93;;
6372;SDS011;3219;51.362;7.074;2023-08-20T03:38:48;16.42;;;11.75;;
6372;SDS011;3219;51.362;7.074;2023-08-20T03:41:17;16.88;;;11.40;;
6372;SDS011;3219;51.362;7.074;2023-08-20T03:43:47;17.67;;;10.43;;
6372;SDS011;3219;51.362;7.074;2023-08-20T03:46:17;15.05;;;9.35;;
6372;SDS011;3219;51.362;7.074;2023-08-20T03:48:45;17.73;;;11.60;;
6372;SDS011;3219;51.362;7.074;2023-08-20T03:51:14;17.50;;;10.63;;
6372;SDS011;3219;51.362;7.074;2023-08-20T03:53:42;16.67;;;10.38;;
6372;SDS011;3219;51.362;7.074;2023-08-20T03:56:11;16.15;;;10.10;;
6372;SDS011;3219;51.362;7.074;2023-08-20T03:58:38;15.75;;;10.35;;
6372;SDS011;3219;51.362;7.074;2023-08-20T04:01:07;19.92;;;12.05;;
6372;SDS011;3219;51.362;7.074;2023-08-20T04:03:35;16.80;;;11.15;;
6372;SDS011;3219;51.362;7.074;2023-08-20T04:06:04;16.55;;;10.32;;
6372;SDS011;3219;51.362;7.074;2023-08-20T04:08:33;18.80;;;11.02;;
6372;SDS011;3219;51.362;7.074;2023-08-20T04:11:01;17.40;;;11.85;;
6372;SDS011;3219;51.362;7.074;2023-08-20T04:13:30;17.60;;;11.15;;
6372;SDS011;3219;51.362;7.074;2023-08-20T04:15:59;15.57;;;10.63;;
6372;SDS011;3219;51.362;7.074;2023-08-20T04:18:27;16.52;;;10.68;;
6372;SDS011;3219;51.362;7.074;2023-08-20T04:20:58;18.10;;;11.02;;
6372;SDS011;3219;51.362;7.074;2023-08-20T04:23:25;18.73;;;12.32;;
6372;SDS011;3219;51.362;7.074;2023-08-20T04:25:53;19.15;;;11.95;;
6372;SDS011;3219;51.362;7.074;2023-08-20T04:28:22;16.63;;;11.15;;
6372;SDS011;3219;51.362;7.074;2023-08-20T04:30:51;18.58;;;11.77;;
6372;SDS011;3219;51.362;7.074;2023-08-20T04:33:20;18.27;;;12.10;;
6372;SDS011;3219;51.362;7.074;2023-08-20T04:35:48;18.83;;;11.77;;
6372;SDS011;3219;51.362;7.074;2023-08-20T04:38:17;18.85;;;11.02;;
6372;SDS011;3219;51.362;7.074;2023-08-20T04:40:46;19.42;;;11.70;;
6372;SDS011;3219;51.362;7.074;2023-08-20T04:43:14;19.83;;;13.32;;
6372;SDS011;3219;51.362;7.074;2023-08-20T04:45:41;20.13;;;12.50;;
6372;SDS011;3219;51.362;7.074;2023-08-20T04:48:10;21.13;;;12.27;;
6372;SDS011;3219;51.362;7.074;2023-08-20T04:50:38;18.27;;;11.93;;
6372;SDS011;3219;51.362;7.074;2023-08-20T04:53:05;19.83;;;11.95;;
6372;SDS011;3219;51.362;7.074;2023-08-20T04:55:35;17.25;;;11.95;;
6372;SDS011;3219;51.362;7.074;2023-08-20T04:58:04;16.77;;;11.27;;
6372;SDS011;3219;51.362;7.074;2023-08-20T05:00:33;16.73;;;11.25;;
6372;SDS011;3219;51.362;7.074;2023-08-20T05:03:03;18.48;;;11.50;;
6372;SDS011;3219;51.362;7.074;2023-08-20T05:05:32;17.73;;;11.05;;
6372;SDS011;3219;51.362;7.074;2023-08-20T05:08:00;18.30;;;11.90;;
6372;SDS011;3219;51.362;7.074;2023-08-20T05:10:28;18.65;;;12.13;;
6372;SDS011;3219;51.362;7.074;2023-08-20T05:12:58;16.95;;;10.75;;
6372;SDS011;3219;51.362;7.074;2023-08-20T05:15:27;16.50;;;10.93;;
6372;SDS011;3219;51.362;7.074;2023-08-20T05:17:55;14.65;;;9.30;;
6372;SDS011;3219;51.362;7.074;2023-08-20T05:20:24;14.02;;;10.15;;
6372;SDS011;3219;51.362;7.074;2023-08-20T05:22:54;18.70;;;12.45;;
6372;SDS011;3219;51.362;7.074;2023-08-20T05:25:22;19.73;;;11.90;;
6372;SDS011;3219;51.362;7.074;2023-08-20T05:27:51;17.88;;;11.77;;
6372;SDS011;3219;51.362;7.074;2023-08-20T05:30:20;17.92;;;11.73;;
6372;SDS011;3219;51.362;7.074;2023-08-20T05:32:49;18.85;;;11.73;;
6372;SDS011;3219;51.362;7.074;2023-08-20T05:35:17;17.40;;;11.77;;
6372;SDS011;3219;51.362;7.074;2023-08-20T05:37:46;17.38;;;11.45;;
6372;SDS011;3219;51.362;7.074;2023-08-20T05:40:14;16.67;;;11.15;;
6372;SDS011;3219;51.362;7.074;2023-08-20T05:42:43;17.00;;;11.32;;
6372;SDS011;3219;51.362;7.074;2023-08-20T05:45:11;18.13;;;11.77;;
6372;SDS011;3219;51.362;7.074;2023-08-20T05:47:41;12.82;;;9.52;;
6372;SDS011;3219;51.362;7.074;2023-08-20T05:50:10;13.43;;;9.10;;
6372;SDS011;3219;51.362;7.074;2023-08-20T05:52:39;13.98;;;9.52;;
6372;SDS011;3219;51.362;7.074;2023-08-20T05:55:08;14.63;;;9.38;;
6372;SDS011;3219;51.362;7.074;2023-08-20T06:00:07;16.77;;;9.75;;
6372;SDS011;3219;51.362;7.074;2023-08-20T06:02:36;13.70;;;9.40;;
6372;SDS011;3219;51.362;7.074;2023-08-20T06:05:08;17.80;;;9.43;;
6372;SDS011;3219;51.362;7.074;2023-08-20T06:07:38;14.80;;;9.95;;
6372;SDS011;3219;51.362;7.074;2023-08-20T06:10:06;13.75;;;9.32;;
6372;SDS011;3219;51.362;7.074;2023-08-20T06:12:36;12.48;;;8.90;;
6372;SDS011;3219;51.362;7.074;2023-08-20T06:15:05;10.88;;;6.95;;
6372;SDS011;3219;51.362;7.074;2023-08-20T06:17:34;10.52;;;8.05;;
6372;SDS011;3219;51.362;7.074;2023-08-20T06:20:02;10.90;;;7.35;;
6372;SDS011;3219;51.362;7.074;2023-08-20T06:22:34;12.07;;;8.88;;
6372;SDS011;3219;51.362;7.074;2023-08-20T06:25:02;10.10;;;7.60;;
6372;SDS011;3219;51.362;7.074;2023-08-20T06:27:30;10.85;;;8.30;;
6372;SDS011;3219;51.362;7.074;2023-08-20T06:29:59;10.20;;;7.60;;
6372;SDS011;3219;51.362;7.074;2023-08-20T06:32:28;10.23;;;6.78;;
6372;SDS011;3219;51.362;7.074;2023-08-20T06:34:56;7.97;;;6.07;;
6372;SDS011;3219;51.362;7.074;2023-08-20T06:37:23;9.55;;;5.53;;
6372;SDS011;3219;51.362;7.074;2023-08-20T06:39:53;7.10;;;5.45;;
6372;SDS011;3219;51.362;7.074;2023-08-20T06:42:20;6.75;;;5.40;;
6372;SDS011;3219;51.362;7.074;2023-08-20T06:44:49;6.50;;;4.93;;
6372;SDS011;3219;51.362;7.074;2023-08-20T06:49:46;6.57;;;4.30;;
6372;SDS011;3219;51.362;7.074;2023-08-20T06:52:15;6.60;;;4.90;;
6372;SDS011;3219;51.362;7.074;2023-08-20T06:54:43;6.72;;;5.13;;
6372;SDS011;3219;51.362;7.074;2023-08-20T06:57:14;4.72;;;3.90;;
6372;SDS011;3219;51.362;7.074;2023-08-20T06:59:42;5.15;;;3.13;;
6372;SDS011;3219;51.362;7.074;2023-08-20T07:02:10;5.60;;;3.30;;
6372;SDS011;3219;51.362;7.074;2023-08-20T07:04:39;4.93;;;3.40;;
6372;SDS011;3219;51.362;7.074;2023-08-20T07:07:08;6.78;;;3.88;;
6372;SDS011;3219;51.362;7.074;2023-08-20T07:09:37;5.97;;;4.35;;
6372;SDS011;3219;51.362;7.074;2023-08-20T07:12:06;4.20;;;3.05;;
6372;SDS011;3219;51.362;7.074;2023-08-20T07:14:36;6.40;;;4.20;;
6372;SDS011;3219;51.362;7.074;2023-08-20T07:17:05;6.85;;;5.13;;
6372;SDS011;3219;51.362;7.074;2023-08-20T07:19:36;6.43;;;4.00;;
6372;SDS011;3219;51.362;7.074;2023-08-20T07:22:04;8.40;;;5.18;;
6372;SDS011;3219;51.362;7.074;2023-08-20T07:24:32;6.28;;;4.90;;
6372;SDS011;3219;51.362;7.074;2023-08-20T07:27:00;4.97;;;3.50;;
6372;SDS011;3219;51.362;7.074;2023-08-20T07:29:37;6.70;;;4.60;;
6372;SDS011;3219;51.362;7.074;2023-08-20T07:32:05;5.53;;;4.15;;
6372;SDS011;3219;51.362;7.074;2023-08-20T07:34:33;6.03;;;4.28;;
6372;SDS011;3219;51.362;7.074;2023-08-20T07:37:01;3.80;;;3.33;;
6372;SDS011;3219;51.362;7.074;2023-08-20T07:39:30;6.32;;;4.07;;
6372;SDS011;3219;51.362;7.074;2023-08-20T07:41:56;6.03;;;3.85;;
6372;SDS011;3219;51.362;7.074;2023-08-20T07:46:54;5.43;;;3.83;;
6372;SDS011;3219;51.362;7.074;2023-08-20T07:49:22;7.30;;;5.00;;
6372;SDS011;3219;51.362;7.074;2023-08-20T07:51:50;5.65;;;3.63;;
6372;SDS011;3219;51.362;7.074;2023-08-20T07:54:21;5.53;;;3.75;;
6372;SDS011;3219;51.362;7.074;2023-08-20T07:56:49;6.20;;;3.50;;
6372;SDS011;3219;51.362;7.074;2023-08-20T07:59:17;4.25;;;2.63;;
6372;SDS011;3219;51.362;7.074;2023-08-20T08:01:45;4.30;;;2.88;;
6372;SDS011;3219;51.362;7.074;2023-08-20T08:04:15;4.97;;;2.47;;
6372;SDS011;3219;51.362;7.074;2023-08-20T08:06:43;4.00;;;2.25;;
6372;SDS011;3219;51.362;7.074;2023-08-20T08:09:14;3.60;;;2.45;;
6372;SDS011;3219;51.362;7.074;2023-08-20T08:11:41;4.57;;;2.15;;
6372;SDS011;3219;51.362;7.074;2023-08-20T08:14:10;7.88;;;2.85;;
6372;SDS011;3219;51.362;7.074;2023-08-20T08:16:37;5.03;;;2.60;;
6372;SDS011;3219;51.362;7.074;2023-08-20T08:19:06;6.57;;;2.95;;
6372;SDS011;3219;51.362;7.074;2023-08-20T08:21:34;5.43;;;3.10;;
6372;SDS011;3219;51.362;7.074;2023-08-20T08:24:03;4.07;;;3.53;;
6372;SDS011;3219;51.362;7.074;2023-08-20T08:26:31;4.05;;;2.95;;
6372;SDS011;3219;51.362;7.074;2023-08-20T08:28:59;3.58;;;2.75;;
6372;SDS011;3219;51.362;7.074;2023-08-20T08:31:27;5.35;;;3.38;;
6372;SDS011;3219;51.362;7.074;2023-08-20T08:33:55;5.30;;;3.55;;
6372;SDS011;3219;51.362;7.074;2023-08-20T08:36:23;4.53;;;3.45;;
6372;SDS011;3219;51.362;7.074;2023-08-20T08:38:53;6.93;;;3.53;;
6372;SDS011;3219;51.362;7.074;2023-08-20T08:41:22;4.40;;;3.28;;
6372;SDS011;3219;51.362;7.074;2023-08-20T08:43:50;6.03;;;3.70;;
6372;SDS011;3219;51.362;7.074;2023-08-20T08:46:18;5.53;;;3.78;;
6372;SDS011;3219;51.362;7.074;2023-08-20T08:51:15;4.50;;;2.92;;
6372;SDS011;3219;51.362;7.074;2023-08-20T08:56:13;4.20;;;3.30;;
6372;SDS011;3219;51.362;7.074;2023-08-20T08:58:41;4.43;;;3.30;;
6372;SDS011;3219;51.362;7.074;2023-08-20T09:01:10;4.75;;;4.30;;
6372;SDS011;3219;51.362;7.074;2023-08-20T09:03:38;5.80;;;4.70;;
6372;SDS011;3219;51.362;7.074;2023-08-20T09:06:07;5.55;;;4.40;;
6372;SDS011;3219;51.362;7.074;2023-08-20T09:08:36;6.63;;;5.78;;
6372;SDS011;3219;51.362;7.074;2023-08-20T09:11:04;9.02;;;7.55;;
6372;SDS011;3219;51.362;7.074;2023-08-20T09:13:35;8.23;;;6.22;;
6372;SDS011;3219;51.362;7.074;2023-08-20T09:16:03;9.93;;;5.65;;
6372;SDS011;3219;51.362;7.074;2023-08-20T09:18:32;7.80;;;5.13;;
6372;SDS011;3219;51.362;7.074;2023-08-20T09:21:01;5.15;;;4.65;;
6372;SDS011;3219;51.362;7.074;2023-08-20T09:23:29;6.45;;;5.07;;
6372;SDS011;3219;51.362;7.074;2023-08-20T09:25:59;5.40;;;4.80;;
6372;SDS011;3219;51.362;7.074;2023-08-20T09:28:29;7.05;;;4.38;;
6372;SDS011;3219;51.362;7.074;2023-08-20T09:30:59;4.95;;;4.07;;
6372;SDS011;3219;51.362;7.074;2023-08-20T09:33:27;6.60;;;5.20;;
6372;SDS011;3219;51.362;7.074;2023-08-20T09:35:56;7.97;;;5.10;;
6372;SDS011;3219;51.362;7.074;2023-08-20T09:38:24;7.53;;;5.68;;
6372;SDS011;3219;51.362;7.074;2023-08-20T09:40:53;7.35;;;5.75;;
6372;SDS011;3219;51.362;7.074;2023-08-20T09:43:23;7.10;;;5.43;;
6372;SDS011;3219;51.362;7.074;2023-08-20T09:45:54;6.32;;;5.45;;
6372;SDS011;3219;51.362;7.074;2023-08-20T09:48:24;7.50;;;5.90;;
6372;SDS011;3219;51.362;7.074;2023-08-20T09:50:56;7.75;;;6.18;;
6372;SDS011;3219;51.362;7.074;2023-08-20T09:53:27;7.35;;;5.97;;
6372;SDS011;3219;51.362;7.074;2023-08-20T09:55:58;6.25;;;5.63;;
6372;SDS011;3219;51.362;7.074;2023-08-20T09:58:29;6.07;;;5.47;;
6372;SDS011;3219;51.362;7.074;2023-08-20T10:00:58;8.45;;;7.07;;
6372;SDS011;3219;51.362;7.074;2023-08-20T10:03:27;5.88;;;4.53;;
6372;SDS011;3219;51.362;7.074;2023-08-20T10:05:56;4.97;;;4.05;;
6372;SDS011;3219;51.362;7.074;2023-08-20T10:08:23;5.72;;;4.60;;
6372;SDS011;3219;51.362;7.074;2023-08-20T10:10:52;6.25;;;4.68;;
6372;SDS011;3219;51.362;7.074;2023-08-20T10:13:19;6.38;;;3.72;;
6372;SDS011;3219;51.362;7.074;2023-08-20T10:15:48;4.20;;;3.80;;
6372;SDS011;3219;51.362;7.074;2023-08-20T10:18:15;5.60;;;4.13;;
6372;SDS011;3219;51.362;7.074;2023-08-20T10:20:48;6.60;;;4.60;;
6372;SDS011;3219;51.362;7.074;2023-08-20T10:23:19;6.05;;;4.57;;
6372;SDS011;3219;51.362;7.074;2023-08-20T10:25:49;7.35;;;5.40;;
6372;SDS011;3219;51.362;7.074;2023-08-20T10:28:19;7.57;;;5.65;;
6372;SDS011;3219;51.362;7.074;2023-08-20T10:31:03;7.25;;;5.57;;
6372;SDS011;3219;51.362;7.074;2023-08-20T10:33:33;6.53;;;4.70;;
6372;SDS011;3219;51.362;7.074;2023-08-20T10:36:10;3.92;;;3.38;;
6372;SDS011;3219;51.362;7.074;2023-08-20T10:38:38;5.95;;;3.70;;
6372;SDS011;3219;51.362;7.074;2023-08-20T10:41:07;11.98;;;6.90;;
6372;SDS011;3219;51.362;7.074;2023-08-20T10:43:36;9.20;;;6.35;;
6372;SDS011;3219;51.362;7.074;2023-08-20T10:46:05;9.93;;;6.18;;
6372;SDS011;3219;51.362;7.074;2023-08-20T10:48:36;6.90;;;5.70;;
6372;SDS011;3219;51.362;7.074;2023-08-20T10:51:12;5.38;;;4.70;;
6372;SDS011;3219;51.362;7.074;2023-08-20T10:53:42;5.38;;;4.07;;
6372;SDS011;3219;51.362;7.074;2023-08-20T10:56:11;5.85;;;3.95;;
6372;SDS011;3219;51.362;7.074;2023-08-20T10:58:44;7.07;;;4.38;;
6372;SDS011;3219;51.362;7.074;2023-08-20T11:01:12;6.50;;;4.60;;
6372;SDS011;3219;51.362;7.074;2023-08-20T11:03:41;7.07;;;4.88;;
6372;SDS011;3219;51.362;7.074;2023-08-20T11:06:10;5.68;;;4.60;;
6372;SDS011;3219;51.362;7.074;2023-08-20T11:08:40;7.15;;;6.22;;
6372;SDS011;3219;51.362;7.074;2023-08-20T11:11:09;10.60;;;6.82;;
6372;SDS011;3219;51.362;7.074;2023-08-20T11:13:37;8.70;;;6.65;;
6372;SDS011;3219;51.362;7.074;2023-08-20T11:16:08;9.25;;;7.28;;
6372;SDS011;3219;51.362;7.074;2023-08-20T11:18:36;10.10;;;7.32;;
6372;SDS011;3219;51.362;7.074;2023-08-20T11:21:04;8.85;;;7.95;;
6372;SDS011;3219;51.362;7.074;2023-08-20T11:23:33;9.10;;;7.47;;
6372;SDS011;3219;51.362;7.074;2023-08-20T11:26:05;8.93;;;7.78;;
6372;SDS011;3219;51.362;7.074;2023-08-20T11:28:33;10.25;;;7.07;;
6372;SDS011;3219;51.362;7.074;2023-08-20T11:31:01;7.72;;;6.93;;
6372;SDS011;3219;51.362;7.074;2023-08-20T11:33:30;7.28;;;6.40;;
6372;SDS011;3219;51.362;7.074;2023-08-20T11:35:58;6.50;;;5.47;;
6372;SDS011;3219;51.362;7.074;2023-08-20T11:38:26;6.15;;;5.55;;
6372;SDS011;3219;51.362;7.074;2023-08-20T11:43:26;7.20;;;6.50;;
6372;SDS011;3219;51.362;7.074;2023-08-20T11:45:54;8.07;;;7.15;;
6372;SDS011;3219;51.362;7.074;2023-08-20T11:48:23;8.27;;;7.00;;
6372;SDS011;3219;51.362;7.074;2023-08-20T11:50:51;10.85;;;8.68;;
6372;SDS011;3219;51.362;7.074;2023-08-20T11:53:22;13.40;;;9.88;;
6372;SDS011;3219;51.362;7.074;2023-08-20T11:55:51;10.52;;;8.77;;
6372;SDS011;3219;51.362;7.074;2023-08-20T11:58:19;8.00;;;6.53;;
6372;SDS011;3219;51.362;7.074;2023-08-20T12:00:49;8.13;;;6.88;;
6372;SDS011;3219;51.362;7.074;2023-08-20T12:03:18;7.75;;;6.32;;
6372;SDS011;3219;51.362;7.074;2023-08-20T12:05:47;8.48;;;7.20;;
6372;SDS011;3219;51.362;7.074;2023-08-20T12:08:15;9.15;;;8.23;;
6372;SDS011;3219;51.362;7.074;2023-08-20T12:10:43;9.27;;;7.70;;
6372;SDS011;3219;51.362;7.074;2023-08-20T12:13:12;11.25;;;9.50;;
6372;SDS011;3219;51.362;7.074;2023-08-20T12:15:40;10.20;;;9.20;;
6372;SDS011;3219;51.362;7.074;2023-08-20T12:18:09;10.52;;;9.43;;
6372;SDS011;3219;51.362;7.074;2023-08-20T12:20:38;9.80;;;8.30;;
6372;SDS011;3219;51.362;7.074;2023-08-20T12:23:06;10.45;;;9.45;;
6372;SDS011;3219;51.362;7.074;2023-08-20T12:25:35;10.77;;;9.05;;
6372;SDS011;3219;51.362;7.074;2023-08-20T12:28:05;10.75;;;9.32;;
6372;SDS011;3219;51.362;7.074;2023-08-20T12:30:34;10.27;;;9.20;;
6372;SDS011;3219;51.362;7.074;2023-08-20T12:33:03;8.95;;;7.63;;
6372;SDS011;3219;51.362;7.074;2023-08-20T12:35:33;7.97;;;7.18;;
6372;SDS011;3219;51.362;7.074;2023-08-20T12:38:01;9.93;;;8.35;;
6372;SDS011;3219;51.362;7.074;2023-08-20T12:40:30;9.40;;;6.97;;
6372;SDS011;3219;51.362;7.074;2023-08-20T12:42:58;8.52;;;7.68;;
6372;SDS011;3219;51.362;7.074;2023-08-20T12:45:26;11.57;;;8.38;;
6372;SDS011;3219;51.362;7.074;2023-08-20T12:47:55;8.45;;;7.63;;
6372;SDS011;3219;51.362;7.074;2023-08-20T12:50:23;8.38;;;6.95;;
6372;SDS011;3219;51.362;7.074;2023-08-20T12:52:52;8.05;;;7.22;;
6372;SDS011;3219;51.362;7.074;2023-08-20T12:55:21;7.13;;;6.43;;
6372;SDS011;3219;51.362;7.074;2023-08-20T12:57:52;7.80;;;7.00;;
6372;SDS011;3219;51.362;7.074;2023-08-20T13:00:21;7.25;;;6.40;;
6372;SDS011;3219;51.362;7.074;2023-08-20T13:02:50;8.02;;;7.22;;
6372;SDS011;3219;51.362;7.074;2023-08-20T13:05:18;7.63;;;6.43;;
6372;SDS011;3219;51.362;7.074;2023-08-20T13:07:47;11.85;;;8.02;;
6372;SDS011;3219;51.362;7.074;2023-08-20T13:10:17;8.65;;;7.68;;
6372;SDS011;3219;51.362;7.074;2023-08-20T13:12:47;8.82;;;7.30;;
6372;SDS011;3219;51.362;7.074;2023-08-20T13:15:16;8.25;;;7.05;;
6372;SDS011;3219;51.362;7.074;2023-08-20T13:17:45;7.53;;;6.15;;
6372;SDS011;3219;51.362;7.074;2023-08-20T13:20:14;7.70;;;6.72;;
6372;SDS011;3219;51.362;7.074;2023-08-20T13:22:46;7.45;;;6.43;;
6372;SDS011;3219;51.362;7.074;2023-08-20T13:25:14;9.32;;;7.25;;
6372;SDS011;3219;51.362;7.074;2023-08-20T13:27:44;7.50;;;6.50;;
6372;SDS011;3219;51.362;7.074;2023-08-20T13:30:12;6.38;;;5.78;;
6372;SDS011;3219;51.362;7.074;2023-08-20T13:32:42;8.45;;;6.28;;
6372;SDS011;3219;51.362;7.074;2023-08-20T13:35:11;7.40;;;5.43;;
6372;SDS011;3219;51.362;7.074;2023-08-20T13:37:39;7.68;;;5.82;;
6372;SDS011;3219;51.362;7.074;2023-08-20T13:40:07;7.72;;;6.15;;
6372;SDS011;3219;51.362;7.074;2023-08-20T13:42:36;9.55;;;6.65;;
6372;SDS011;3219;51.362;7.074;2023-08-20T13:45:07;7.93;;;6.78;;
6372;SDS011;3219;51.362;7.074;2023-08-20T13:47:35;8.13;;;6.18;;
6372;SDS011;3219;51.362;7.074;2023-08-20T13:50:04;6.93;;;6.22;;
6372;SDS011;3219;51.362;7.074;2023-08-20T13:52:33;8.15;;;5.95;;
6372;SDS011;3219;51.362;7.074;2023-08-20T13:55:01;6.60;;;5.85;;
6372;SDS011;3219;51.362;7.074;2023-08-20T13:57:29;7.70;;;6.82;;
6372;SDS011;3219;51.362;7.074;2023-08-20T13:59:58;7.88;;;6.57;;
6372;SDS011;3219;51.362;7.074;2023-08-20T14:04:56;9.75;;;7.45;;
6372;SDS011;3219;51.362;7.074;2023-08-20T14:07:25;8.23;;;6.70;;
6372;SDS011;3219;51.362;7.074;2023-08-20T14:09:53;7.88;;;5.30;;
6372;SDS011;3219;51.362;7.074;2023-08-20T14:12:21;7.60;;;6.00;;
6372;SDS011;3219;51.362;7.074;2023-08-20T14:14:48;6.15;;;5.43;;
6372;SDS011;3219;51.362;7.074;2023-08-20T14:17:16;8.63;;;5.50;;
6372;SDS011;3219;51.362;7.074;2023-08-20T14:19:43;8.48;;;6.85;;
6372;SDS011;3219;51.362;7.074;2023-08-20T14:22:12;9.88;;;6.45;;
6372;SDS011;3219;51.362;7.074;2023-08-20T14:24:39;7.20;;;6.50;;
6372;SDS011;3219;51.362;7.074;2023-08-20T14:27:06;10.18;;;7.05;;
6372;SDS011;3219;51.362;7.074;2023-08-20T14:29:34;7.45;;;5.75;;
6372;SDS011;3219;51.362;7.074;2023-08-20T14:32:03;8.00;;;6.13;;
6372;SDS011;3219;51.362;7.074;2023-08-20T14:34:31;7.28;;;6.22;;
6372;SDS011;3219;51.362;7.074;2023-08-20T14:36:59;6.90;;;5.55;;
6372;SDS011;3219;51.362;7.074;2023-08-20T14:39:29;6.25;;;5.65;;
6372;SDS011;3219;51.362;7.074;2023-08-20T14:41:57;6.60;;;5.25;;
6372;SDS011;3219;51.362;7.074;2023-08-20T14:44:27;7.03;;;5.32;;
6372;SDS011;3219;51.362;7.074;2023-08-20T14:46:55;6.18;;;4.97;;
6372;SDS011;3219;51.362;7.074;2023-08-20T14:49:23;5.97;;;5.38;;
6372;SDS011;3219;51.362;7.074;2023-08-20T14:51:53;6.18;;;5.35;;
6372;SDS011;3219;51.362;7.074;2023-08-20T14:54:21;6.55;;;5.10;;
6372;SDS011;3219;51.362;7.074;2023-08-20T14:56:51;6.68;;;6.03;;
6372;SDS011;3219;51.362;7.074;2023-08-20T14:59:19;6.90;;;6.18;;
6372;SDS011;3219;51.362;7.074;2023-08-20T15:01:48;6.30;;;5.18;;
6372;SDS011;3219;51.362;7.074;2023-08-20T15:04:16;8.57;;;5.80;;
6372;SDS011;3219;51.362;7.074;2023-08-20T15:06:44;8.57;;;5.97;;
6372;SDS011;3219;51.362;7.074;2023-08-20T15:09:12;8.07;;;5.25;;
6372;SDS011;3219;51.362;7.074;2023-08-20T15:11:41;5.90;;;5.30;;
6372;SDS011;3219;51.362;7.074;2023-08-20T15:14:11;5.88;;;4.95;;
6372;SDS011;3219;51.362;7.074;2023-08-20T15:16:39;6.40;;;5.53;;
6372;SDS011;3219;51.362;7.074;2023-08-20T15:19:07;6.28;;;5.03;;
6372;SDS011;3219;51.362;7.074;2023-08-20T15:21:36;7.13;;;5.20;;
6372;SDS011;3219;51.362;7.074;2023-08-20T15:24:04;5.25;;;4.75;;
6372;SDS011;3219;51.362;7.074;2023-08-20T15:26:33;8.32;;;4.80;;
6372;SDS011;3219;51.362;7.074;2023-08-20T15:29:01;6.97;;;5.63;;
6372;SDS011;3219;51.362;7.074;2023-08-20T15:31:31;7.60;;;4.70;;
6372;SDS011;3219;51.362;7.074;2023-08-20T15:34:00;6.95;;;4.45;;
6372;SDS011;3219;51.362;7.074;2023-08-20T15:36:28;5.25;;;4.68;;
6372;SDS011;3219;51.362;7.074;2023-08-20T15:38:57;5.38;;;4.72;;
6372;SDS011;3219;51.362;7.074;2023-08-20T15:41:25;6.35;;;5.25;;